Time;durP1;ratioP1;P1;durP2;ratioP2;P2;SDS_P1;SDS_P2;PMS_P1;PMS_P2;Temp;Humidity;BMP_temperature;BMP_pressure;BME280_temperature;BME280_humidity;BME280_pressure;Samples;Min_cycle;Max_cycle;Signal;HPM_P1;HPM_P2
2022/04/03 00:01:34;;;;;;;2.97;2.78;;;3.30;99.90;;;;;;6065181;23;20202;-71
2022/04/03 00:04:01;;;;;;;3.05;2.85;;;3.30;99.90;;;;;;6065241;23;20601;-75
2022/04/03 00:06:28;;;;;;;2.80;2.70;;;3.30;99.90;;;;;;6064924;23;20178;-74
2022/04/03 00:08:56;;;;;;;2.80;2.70;;;3.20;99.90;;;;;;6065666;23;20210;-74
2022/04/03 00:11:23;;;;;;;2.80;2.70;;;3.20;99.90;;;;;;6064587;23;20217;-72
2022/04/03 00:13:52;;;;;;;2.50;2.40;;;3.20;99.90;;;;;;6063766;23;20705;-72
2022/04/03 00:16:19;;;;;;;2.60;2.50;;;3.20;99.90;;;;;;6065272;23;20175;-72
2022/04/03 00:18:46;;;;;;;2.70;2.60;;;3.10;99.90;;;;;;6064406;23;20281;-72
2022/04/03 00:21:14;;;;;;;2.67;2.58;;;3.10;99.90;;;;;;6065397;23;20206;-72
2022/04/03 00:23:41;;;;;;;2.90;2.80;;;3.10;99.90;;;;;;6062537;23;20270;-76
2022/04/03 00:26:08;;;;;;;2.58;2.47;;;3.00;99.90;;;;;;6065233;23;20639;-74
2022/04/03 00:28:35;;;;;;;2.90;2.80;;;3.00;99.90;;;;;;6064705;23;20214;-72
2022/04/03 00:31:04;;;;;;;2.83;2.72;;;3.00;99.90;;;;;;6066434;23;20278;-74
2022/04/03 00:33:31;;;;;;;2.70;2.60;;;3.00;99.90;;;;;;6065147;23;20271;-71
2022/04/03 00:35:58;;;;;;;2.75;2.65;;;2.90;99.90;;;;;;6065082;23;20178;-73
2022/04/03 00:38:25;;;;;;;3.13;2.97;;;2.90;99.90;;;;;;6065734;23;20226;-72
2022/04/03 00:40:52;;;;;;;2.92;2.83;;;2.90;99.90;;;;;;6066067;23;20198;-73
2022/04/03 00:43:19;;;;;;;2.75;2.65;;;2.90;99.90;;;;;;6065770;23;20210;-72
2022/04/03 00:45:48;;;;;;;3.05;2.95;;;2.90;99.90;;;;;;6066499;23;20250;-74
2022/04/03 00:48:16;;;;;;;2.78;2.67;;;2.90;99.90;;;;;;6064723;23;20214;-72
2022/04/03 00:50:44;;;;;;;3.10;3.00;;;2.80;99.90;;;;;;6066217;23;20879;-72
2022/04/03 00:53:12;;;;;;;2.50;2.40;;;2.70;99.90;;;;;;6065348;23;20225;-71
2022/04/03 00:55:41;;;;;;;2.63;2.53;;;2.70;99.90;;;;;;6064015;23;20174;-71
2022/04/03 00:58:09;;;;;;;2.70;2.60;;;2.80;99.90;;;;;;6061412;23;20230;-72
2022/04/03 01:00:36;;;;;;;2.53;2.42;;;2.70;99.90;;;;;;6064149;23;20249;-75
2022/04/03 01:03:04;;;;;;;2.90;2.80;;;2.80;99.90;;;;;;6064399;23;20281;-72
2022/04/03 01:05:33;;;;;;;3.30;3.13;;;2.80;99.90;;;;;;6064113;23;20178;-73
2022/04/03 01:08:00;;;;;;;3.00;2.90;;;2.80;99.90;;;;;;6064711;23;20213;-72
2022/04/03 01:10:27;;;;;;;2.88;2.78;;;2.70;99.90;;;;;;6063559;23;20194;-72
2022/04/03 01:12:54;;;;;;;2.90;2.80;;;2.70;99.90;;;;;;6062654;23;20265;-72
2022/04/03 01:15:21;;;;;;;3.00;2.90;;;2.60;99.90;;;;;;6062853;23;20182;-72
2022/04/03 01:17:51;;;;;;;2.80;2.70;;;2.60;99.90;;;;;;6065547;23;20209;-72
2022/04/03 01:20:18;;;;;;;3.10;3.00;;;2.60;99.90;;;;;;6064910;23;20206;-75
2022/04/03 01:22:47;;;;;;;2.78;2.67;;;2.60;99.90;;;;;;6063473;23;20222;-73
2022/04/03 01:25:16;;;;;;;2.90;2.80;;;2.50;99.90;;;;;;6064435;23;20186;-70
2022/04/03 01:27:43;;;;;;;2.80;2.70;;;2.50;99.90;;;;;;6064575;23;20202;-75
2022/04/03 01:30:11;;;;;;;3.22;3.13;;;2.40;99.90;;;;;;6065775;23;20178;-73
2022/04/03 01:32:39;;;;;;;3.10;2.90;;;2.40;99.90;;;;;;6063082;23;20202;-72
2022/04/03 01:35:07;;;;;;;3.30;3.20;;;2.40;99.90;;;;;;6064356;23;20182;-71
2022/04/03 01:37:34;;;;;;;3.20;3.10;;;2.40;99.90;;;;;;6064018;23;20245;-71
2022/04/03 01:40:01;;;;;;;2.85;2.75;;;2.40;99.90;;;;;;6063065;23;20651;-70
2022/04/03 01:42:30;;;;;;;2.83;2.72;;;2.30;99.90;;;;;;6063420;23;20174;-72
2022/04/03 01:44:57;;;;;;;3.20;3.10;;;2.30;99.90;;;;;;6062147;23;20183;-71
2022/04/03 01:47:24;;;;;;;2.80;2.70;;;2.30;99.90;;;;;;6063088;23;20242;-72
2022/04/03 01:49:51;;;;;;;3.40;3.30;;;2.30;99.90;;;;;;6062756;23;20182;-73
2022/04/03 01:52:18;;;;;;;3.00;2.90;;;2.30;99.90;;;;;;6061396;23;20249;-73
2022/04/03 01:54:45;;;;;;;2.88;2.78;;;2.20;99.90;;;;;;6062243;23;20190;-71
2022/04/03 01:57:12;;;;;;;3.30;3.20;;;2.30;99.90;;;;;;6060616;23;20493;-71
2022/04/03 01:59:40;;;;;;;2.83;2.72;;;2.40;99.90;;;;;;6063764;23;20589;-72
2022/04/03 02:02:07;;;;;;;3.20;3.10;;;2.40;99.90;;;;;;6064466;23;20225;-71
2022/04/03 02:04:34;;;;;;;3.20;3.00;;;2.40;99.90;;;;;;6061013;23;20206;-72
2022/04/03 02:07:03;;;;;;;2.95;2.85;;;2.40;99.90;;;;;;6062316;23;20189;-72
2022/04/03 02:09:31;;;;;;;2.78;2.67;;;2.40;99.90;;;;;;6061837;23;20698;-71
2022/04/03 02:11:58;;;;;;;3.28;3.00;;;2.40;99.90;;;;;;6063789;23;20233;-70
2022/04/03 02:14:25;;;;;;;2.88;2.78;;;2.40;99.90;;;;;;6061739;23;20216;-71
2022/04/03 02:16:56;;;;;;;2.78;2.67;;;2.40;99.90;;;;;;6064406;23;20174;-72
2022/04/03 02:19:23;;;;;;;2.72;2.63;;;2.50;99.90;;;;;;6063297;23;20238;-71
2022/04/03 02:21:51;;;;;;;3.28;3.17;;;2.50;99.90;;;;;;6051085;23;20211;-77
2022/04/03 02:24:18;;;;;;;3.42;3.22;;;2.50;99.90;;;;;;6031047;23;20207;-77
2022/04/03 02:26:45;;;;;;;3.10;2.90;;;2.50;99.90;;;;;;6034188;23;20178;-77
2022/04/03 02:29:12;;;;;;;2.50;2.40;;;2.40;99.90;;;;;;6035272;23;20211;-78
2022/04/03 02:31:39;;;;;;;2.60;2.50;;;2.40;99.90;;;;;;6046244;23;20234;-76
2022/04/03 02:34:08;;;;;;;3.60;3.40;;;2.50;99.90;;;;;;6062905;23;20277;-77
2022/04/03 02:36:35;;;;;;;3.20;3.10;;;2.50;99.90;;;;;;6065666;23;20209;-76
2022/04/03 02:39:03;;;;;;;3.15;3.05;;;2.40;99.90;;;;;;6064997;23;20209;-77
2022/04/03 02:41:30;;;;;;;3.08;2.97;;;2.40;99.90;;;;;;6065171;23;20202;-77
2022/04/03 02:43:57;;;;;;;3.35;3.25;;;2.40;99.90;;;;;;6062810;23;20213;-77
2022/04/03 02:46:24;;;;;;;3.15;3.03;;;2.40;99.90;;;;;;6063921;23;20570;-77
2022/04/03 02:48:51;;;;;;;3.30;3.20;;;2.40;99.90;;;;;;6065053;23;20213;-77
2022/04/03 02:51:19;;;;;;;2.92;2.80;;;2.30;99.90;;;;;;6064976;23;20198;-77
2022/04/03 02:53:46;;;;;;;2.85;2.75;;;2.20;99.90;;;;;;6063993;23;20218;-77
2022/04/03 02:56:14;;;;;;;3.28;3.08;;;2.20;99.90;;;;;;6064008;23;20245;-77
2022/04/03 02:58:41;;;;;;;3.13;3.03;;;2.20;99.90;;;;;;6065407;23;20205;-78
2022/04/03 03:01:08;;;;;;;3.00;2.90;;;2.20;99.90;;;;;;6064635;23;20222;-78
2022/04/03 03:03:36;;;;;;;3.00;2.90;;;2.20;99.90;;;;;;6064435;23;20284;-77
2022/04/03 03:06:03;;;;;;;3.20;3.10;;;2.30;99.90;;;;;;6063345;23;20194;-78
2022/04/03 03:08:31;;;;;;;3.10;2.92;;;2.20;99.90;;;;;;6063204;23;20209;-77
2022/04/03 03:10:58;;;;;;;3.10;3.00;;;2.30;99.90;;;;;;6064185;23;20620;-78
2022/04/03 03:13:25;;;;;;;3.17;3.05;;;2.20;99.90;;;;;;6065202;23;20202;-79
2022/04/03 03:15:52;;;;;;;3.08;2.88;;;2.30;99.90;;;;;;6065024;23;20289;-78
2022/04/03 03:18:19;;;;;;;2.92;2.83;;;2.20;99.90;;;;;;6064703;23;20205;-77
2022/04/03 03:20:46;;;;;;;3.05;2.95;;;2.20;99.90;;;;;;6064898;23;20293;-77
2022/04/03 03:23:13;;;;;;;2.88;2.78;;;2.30;99.90;;;;;;6064165;23;20198;-78
2022/04/03 03:25:43;;;;;;;3.05;2.88;;;2.20;99.90;;;;;;6066652;23;20178;-75
2022/04/03 03:28:10;;;;;;;3.03;2.92;;;2.20;99.90;;;;;;6063293;23;20214;-77
2022/04/03 03:30:37;;;;;;;3.00;2.90;;;2.20;99.90;;;;;;6064833;23;20647;-76
2022/04/03 03:33:04;;;;;;;3.13;3.03;;;2.20;99.90;;;;;;6061668;23;20210;-76
2022/04/03 03:35:31;;;;;;;3.08;2.97;;;2.20;99.90;;;;;;6065122;23;20586;-75
2022/04/03 03:37:58;;;;;;;2.92;2.83;;;2.20;99.90;;;;;;6063901;23;20186;-78
2022/04/03 03:40:26;;;;;;;2.83;2.72;;;2.20;99.90;;;;;;6065684;23;20230;-76
2022/04/03 03:42:55;;;;;;;3.15;3.05;;;2.10;99.90;;;;;;6063384;23;20193;-75
2022/04/03 03:45:23;;;;;;;2.95;2.85;;;2.10;99.90;;;;;;6064281;23;20193;-75
2022/04/03 03:47:50;;;;;;;3.40;3.30;;;2.00;99.90;;;;;;6064109;23;20643;-77
2022/04/03 03:50:17;;;;;;;2.65;2.55;;;2.00;99.90;;;;;;6064391;23;20178;-76
2022/04/03 03:52:45;;;;;;;3.25;3.05;;;2.00;99.90;;;;;;6063271;23;20198;-76
2022/04/03 03:55:12;;;;;;;3.20;3.10;;;1.90;99.90;;;;;;6064175;23;20323;-75
2022/04/03 03:57:39;;;;;;;3.67;3.47;;;1.90;99.90;;;;;;6064399;23;20257;-76
2022/04/03 04:00:10;;;;;;;3.78;3.58;;;1.90;99.90;;;;;;6063424;23;20609;-76
2022/04/03 04:02:37;;;;;;;2.83;2.72;;;1.90;99.90;;;;;;6064055;23;20533;-76
2022/04/03 04:05:05;;;;;;;3.50;3.30;;;1.90;99.90;;;;;;6061554;23;20206;-76
2022/04/03 04:07:39;;;;;;;3.40;3.30;;;1.90;99.90;;;;;;6062365;23;20233;-76
2022/04/03 04:10:07;;;;;;;2.97;2.88;;;1.90;99.90;;;;;;6063318;23;20233;-75
2022/04/03 04:12:35;;;;;;;3.63;3.42;;;1.90;99.90;;;;;;6063009;23;20254;-76
2022/04/03 04:15:03;;;;;;;3.67;3.47;;;1.90;99.90;;;;;;6062700;23;20213;-76
2022/04/03 04:17:35;;;;;;;3.70;3.50;;;1.90;99.90;;;;;;6060077;23;20245;-76
2022/04/03 04:20:03;;;;;;;3.47;3.28;;;1.90;99.90;;;;;;6062603;23;20210;-76
2022/04/03 04:22:30;;;;;;;3.45;3.25;;;1.90;99.90;;;;;;6063218;23;20273;-79
2022/04/03 04:24:57;;;;;;;3.28;3.17;;;1.80;99.90;;;;;;6063721;23;20210;-74
2022/04/03 04:27:24;;;;;;;3.58;3.38;;;1.90;99.90;;;;;;6064033;23;20182;-76
2022/04/03 04:29:51;;;;;;;3.53;3.33;;;1.90;99.90;;;;;;6063045;23;20206;-75
2022/04/03 04:32:21;;;;;;;3.65;3.45;;;1.90;99.90;;;;;;6063491;23;20198;-77
2022/04/03 04:34:50;;;;;;;3.63;3.42;;;1.90;99.90;;;;;;6060295;23;20687;-76
2022/04/03 04:37:17;;;;;;;3.35;3.15;;;1.90;99.90;;;;;;6060678;23;20218;-78
2022/04/03 04:39:44;;;;;;;3.65;3.45;;;1.90;99.90;;;;;;6059696;23;20523;-75
2022/04/03 04:42:12;;;;;;;3.35;3.15;;;1.90;99.90;;;;;;6060068;23;20691;-76
2022/04/03 04:44:39;;;;;;;3.50;3.30;;;1.90;99.90;;;;;;6061818;23;20262;-75
2022/04/03 04:47:07;;;;;;;3.22;3.13;;;1.90;99.90;;;;;;6063958;23;20233;-77
2022/04/03 04:49:34;;;;;;;3.80;3.60;;;1.90;99.90;;;;;;6063856;23;20206;-75
2022/04/03 04:52:03;;;;;;;3.83;3.63;;;2.00;99.90;;;;;;6064227;23;20206;-76
2022/04/03 04:54:30;;;;;;;3.50;3.30;;;2.00;99.90;;;;;;6062086;23;20220;-75
2022/04/03 04:56:58;;;;;;;3.72;3.53;;;1.90;99.90;;;;;;6064220;23;20178;-76
2022/04/03 04:59:25;;;;;;;3.85;3.65;;;1.90;99.90;;;;;;6063573;23;20202;-75
2022/04/03 05:01:56;;;;;;;3.88;3.67;;;1.90;99.90;;;;;;6064160;23;20209;-75
2022/04/03 05:04:23;;;;;;;4.25;4.00;;;2.00;99.90;;;;;;6063202;23;20281;-76
2022/04/03 05:06:51;;;;;;;3.80;3.60;;;1.90;99.90;;;;;;6064526;23;20528;-76
2022/04/03 05:09:21;;;;;;;3.70;3.50;;;2.00;99.90;;;;;;6062471;23;20696;-74
2022/04/03 05:11:48;;;;;;;3.90;3.70;;;2.00;99.90;;;;;;6063075;23;20573;-75
2022/04/03 05:14:15;;;;;;;3.20;3.08;;;2.00;99.90;;;;;;6063049;23;20269;-75
2022/04/03 05:16:43;;;;;;;3.60;3.40;;;1.90;99.90;;;;;;6063642;23;20628;-76
2022/04/03 05:19:13;;;;;;;3.35;3.17;;;1.90;99.90;;;;;;6063246;23;20253;-76
2022/04/03 05:21:40;;;;;;;3.05;2.92;;;2.00;99.90;;;;;;6063572;23;20313;-76
2022/04/03 05:24:07;;;;;;;3.20;3.00;;;2.00;99.90;;;;;;6063345;23;20202;-75
2022/04/03 05:26:36;;;;;;;3.22;3.08;;;2.10;99.90;;;;;;6063531;23;20179;-76
2022/04/03 05:29:03;;;;;;;3.33;3.22;;;2.00;99.90;;;;;;6063177;23;20299;-76
2022/04/03 05:31:30;;;;;;;3.60;3.40;;;2.00;99.90;;;;;;6063720;23;20699;-76
2022/04/03 05:33:57;;;;;;;3.95;3.65;;;2.10;99.90;;;;;;6062853;23;20717;-76
2022/04/03 05:36:24;;;;;;;3.70;3.50;;;2.10;99.90;;;;;;6063392;23;20186;-75
2022/04/03 05:38:51;;;;;;;3.55;3.35;;;2.10;99.90;;;;;;6061888;23;20202;-75
2022/04/03 05:41:18;;;;;;;3.42;3.22;;;2.10;99.90;;;;;;6063807;23;20198;-78
2022/04/03 05:43:46;;;;;;;3.17;2.97;;;2.20;99.90;;;;;;6063257;23;20213;-75
2022/04/03 05:46:13;;;;;;;3.60;3.40;;;2.30;99.90;;;;;;6063963;23;20182;-74
2022/04/03 05:48:41;;;;;;;3.30;3.10;;;2.40;99.90;;;;;;6062865;23;20205;-75
2022/04/03 05:51:08;;;;;;;3.70;3.50;;;2.50;99.90;;;;;;6064521;23;20194;-75
2022/04/03 05:53:35;;;;;;;3.58;3.30;;;2.60;99.90;;;;;;6061665;23;20185;-76
2022/04/03 05:56:02;;;;;;;3.60;3.40;;;2.60;99.90;;;;;;6064319;23;20186;-75
2022/04/03 05:58:29;;;;;;;3.00;2.90;;;2.70;99.90;;;;;;6064120;23;20827;-75
2022/04/03 06:00:57;;;;;;;3.28;3.08;;;2.70;99.90;;;;;;6064604;23;20234;-75
2022/04/03 06:03:24;;;;;;;3.50;3.30;;;2.80;99.90;;;;;;6063407;23;20178;-75
2022/04/03 06:05:51;;;;;;;3.40;3.22;;;2.90;99.90;;;;;;6063256;23;20185;-75
2022/04/03 06:08:18;;;;;;;3.45;3.30;;;2.90;99.90;;;;;;6065273;23;20250;-74
2022/04/03 06:10:45;;;;;;;3.00;2.90;;;3.00;99.90;;;;;;6062449;23;20237;-76
2022/04/03 06:13:13;;;;;;;3.58;3.33;;;3.00;99.90;;;;;;6064240;23;20170;-76
2022/04/03 06:15:43;;;;;;;3.20;3.10;;;3.10;99.90;;;;;;6062454;23;20333;-75
2022/04/03 06:18:13;;;;;;;3.17;2.97;;;3.20;99.90;;;;;;6062662;23;20272;-75
2022/04/03 06:20:41;;;;;;;3.40;3.20;;;3.40;99.90;;;;;;6062379;23;20206;-76
2022/04/03 06:23:12;;;;;;;2.80;2.70;;;3.50;99.90;;;;;;6063639;23;20186;-75
2022/04/03 06:25:39;;;;;;;3.60;3.40;;;3.60;99.90;;;;;;6062615;23;20595;-76
2022/04/03 06:28:07;;;;;;;3.50;3.30;;;3.70;99.90;;;;;;6063257;23;20182;-76
2022/04/03 06:30:34;;;;;;;3.90;3.70;;;3.80;99.90;;;;;;6060885;23;20218;-75
2022/04/03 06:33:02;;;;;;;3.30;3.10;;;4.10;99.90;;;;;;6063262;23;20298;-75
2022/04/03 06:35:30;;;;;;;3.33;3.13;;;4.40;99.90;;;;;;6062720;23;20210;-76
2022/04/03 06:37:57;;;;;;;3.30;3.10;;;4.80;99.90;;;;;;6064420;23;20211;-76
2022/04/03 06:40:25;;;;;;;3.60;3.40;;;5.10;99.90;;;;;;6061451;23;20214;-76
2022/04/03 06:42:52;;;;;;;3.92;3.72;;;5.40;99.90;;;;;;6062925;23;20671;-76
2022/04/03 06:45:19;;;;;;;4.20;3.80;;;5.60;99.90;;;;;;6061606;23;20203;-77
2022/04/03 06:47:46;;;;;;;4.43;4.13;;;5.80;99.90;;;;;;6062916;23;20449;-76
2022/04/03 06:50:14;;;;;;;4.97;4.68;;;6.00;99.90;;;;;;6061184;23;20741;-75
2022/04/03 06:52:42;;;;;;;5.53;5.03;;;6.10;99.90;;;;;;6061466;23;20205;-76
2022/04/03 06:55:10;;;;;;;5.00;4.68;;;6.30;99.90;;;;;;6062643;23;20266;-76
2022/04/03 06:57:38;;;;;;;4.70;4.40;;;6.50;99.90;;;;;;6062425;23;20178;-77
2022/04/03 07:00:06;;;;;;;4.50;4.20;;;6.70;99.90;;;;;;6059681;23;20217;-76
2022/04/03 07:02:33;;;;;;;5.03;4.55;;;7.10;99.90;;;;;;6058500;23;20697;-76
2022/04/03 07:05:00;;;;;;;3.97;3.67;;;7.40;99.90;;;;;;6059820;23;20285;-76
2022/04/03 07:07:28;;;;;;;3.88;3.58;;;7.50;99.90;;;;;;6061707;23;20563;-76
2022/04/03 07:09:56;;;;;;;3.83;3.60;;;7.60;99.90;;;;;;6060983;23;20213;-75
2022/04/03 07:12:23;;;;;;;3.80;3.50;;;7.70;99.90;;;;;;6061146;23;20205;-75
2022/04/03 07:14:51;;;;;;;4.10;3.80;;;7.70;99.90;;;;;;6060863;23;20281;-76
2022/04/03 07:17:18;;;;;;;3.78;3.58;;;7.70;99.90;;;;;;6064231;23;20175;-77
2022/04/03 07:19:45;;;;;;;3.42;3.22;;;7.90;99.90;;;;;;6063477;23;20611;-77
2022/04/03 07:22:12;;;;;;;3.70;3.42;;;8.10;99.90;;;;;;6063540;23;20202;-76
2022/04/03 07:24:39;;;;;;;3.40;3.20;;;8.30;99.90;;;;;;6063227;23;20210;-77
2022/04/03 07:27:08;;;;;;;3.45;3.25;;;8.40;99.90;;;;;;6063600;23;20571;-75
2022/04/03 07:29:35;;;;;;;3.67;3.47;;;8.60;99.90;;;;;;6061909;23;20294;-76
2022/04/03 07:32:04;;;;;;;3.50;3.28;;;8.60;99.90;;;;;;6061300;23;20679;-76
2022/04/03 07:34:31;;;;;;;3.25;3.05;;;8.70;99.90;;;;;;6061849;23;20266;-76
2022/04/03 07:36:58;;;;;;;4.05;3.75;;;8.80;99.90;;;;;;6062749;23;20666;-77
2022/04/03 07:39:26;;;;;;;3.15;2.95;;;8.80;99.90;;;;;;6061616;23;20202;-77
2022/04/03 07:41:53;;;;;;;3.03;2.83;;;9.00;99.90;;;;;;6062639;23;20194;-77
2022/04/03 07:44:21;;;;;;;3.50;3.30;;;9.10;99.90;;;;;;6061433;23;20206;-77
2022/04/03 07:46:48;;;;;;;3.28;3.08;;;9.30;99.90;;;;;;6063059;23;20179;-77
2022/04/03 07:49:16;;;;;;;3.20;3.00;;;9.40;99.90;;;;;;6061764;23;20205;-77
2022/04/03 07:51:43;;;;;;;2.80;2.70;;;9.50;99.90;;;;;;6062138;23;20253;-76
2022/04/03 07:54:10;;;;;;;4.07;3.33;;;9.70;99.90;;;;;;6061807;23;20226;-76
2022/04/03 07:56:37;;;;;;;3.55;3.25;;;9.60;99.90;;;;;;6061903;23;20237;-77
2022/04/03 07:59:06;;;;;;;3.28;3.08;;;9.60;99.90;;;;;;6063051;23;20303;-77
2022/04/03 08:01:34;;;;;;;2.92;2.72;;;9.60;99.90;;;;;;6062301;23;20285;-76
2022/04/03 08:04:01;;;;;;;2.83;2.72;;;9.60;99.90;;;;;;6061821;23;20179;-77
2022/04/03 08:06:28;;;;;;;2.78;2.58;;;9.70;99.90;;;;;;6063037;23;20240;-78
2022/04/03 08:08:56;;;;;;;3.53;3.33;;;9.70;99.90;;;;;;6062833;23;20186;-77
2022/04/03 08:11:23;;;;;;;3.03;2.60;;;9.50;99.90;;;;;;6063074;23;20281;-76
2022/04/03 08:13:50;;;;;;;2.80;2.70;;;9.50;99.90;;;;;;6063351;23;20221;-77
2022/04/03 08:16:17;;;;;;;3.60;3.40;;;9.50;99.90;;;;;;6063613;23;20213;-77
2022/04/03 08:18:45;;;;;;;2.90;2.70;;;9.60;99.90;;;;;;6063457;23;20519;-76
2022/04/03 08:21:12;;;;;;;3.15;2.95;;;9.60;99.90;;;;;;6063366;23;20249;-76
2022/04/03 08:23:40;;;;;;;3.03;2.72;;;9.60;99.90;;;;;;6039230;23;20664;-71
2022/04/03 08:26:07;;;;;;;3.20;2.90;;;9.50;99.90;;;;;;6029635;23;20869;-70
2022/04/03 08:28:34;;;;;;;2.80;2.60;;;9.50;99.90;;;;;;6034115;23;20294;-71
2022/04/03 08:31:01;;;;;;;2.60;2.50;;;9.50;99.90;;;;;;6033428;23;20628;-71
2022/04/03 08:33:28;;;;;;;3.30;3.10;;;9.80;99.90;;;;;;6054942;23;20220;-72
2022/04/03 08:35:57;;;;;;;2.95;2.75;;;10.10;99.90;;;;;;6062010;23;20325;-71
2022/04/03 08:38:24;;;;;;;2.95;2.63;;;10.30;99.90;;;;;;6063016;23;20245;-71
2022/04/03 08:40:51;;;;;;;3.08;2.88;;;10.20;99.90;;;;;;6062332;23;20314;-72
2022/04/03 08:43:19;;;;;;;3.10;2.90;;;10.30;99.90;;;;;;6062155;23;20202;-72
2022/04/03 08:45:46;;;;;;;2.83;2.72;;;10.50;99.90;;;;;;6060725;23;20202;-73
2022/04/03 08:48:15;;;;;;;3.20;3.00;;;10.50;99.90;;;;;;6063288;23;20178;-72
2022/04/03 08:50:43;;;;;;;2.90;2.70;;;10.50;99.90;;;;;;6061702;23;20210;-74
2022/04/03 08:53:11;;;;;;;3.10;2.90;;;10.40;99.90;;;;;;6063188;23;20201;-72
2022/04/03 08:55:38;;;;;;;2.90;2.70;;;10.60;99.90;;;;;;6062651;23;20524;-73
2022/04/03 08:58:06;;;;;;;2.67;2.58;;;10.60;99.90;;;;;;6062183;23;20185;-73
2022/04/03 09:00:34;;;;;;;2.90;2.70;;;10.60;99.90;;;;;;6062023;23;20753;-74
2022/04/03 09:03:01;;;;;;;2.75;2.55;;;10.60;99.90;;;;;;6061967;23;20202;-73
2022/04/03 09:05:38;;;;;;;3.80;3.38;;;10.60;99.90;;;;;;6060704;23;20202;-73
2022/04/03 09:08:07;;;;;;;3.08;2.88;;;10.30;99.90;;;;;;6060979;23;20170;-75
2022/04/03 09:10:36;;;;;;;3.92;2.67;;;10.50;99.90;;;;;;6060647;23;20678;-73
2022/04/03 09:13:03;;;;;;;3.00;2.65;;;10.60;99.90;;;;;;6063117;23;20198;-74
2022/04/03 09:15:31;;;;;;;2.78;2.67;;;10.60;99.90;;;;;;6062365;23;20206;-72
2022/04/03 09:18:01;;;;;;;2.80;2.63;;;10.70;99.90;;;;;;6063044;23;20178;-73
2022/04/03 09:20:31;;;;;;;2.90;2.80;;;10.80;99.90;;;;;;6063584;23;20198;-72
2022/04/03 09:23:00;;;;;;;2.65;2.55;;;11.00;99.90;;;;;;6063445;23;20230;-75
2022/04/03 09:25:29;;;;;;;2.60;2.50;;;11.50;99.90;;;;;;6060833;23;20208;-72
2022/04/03 09:27:59;;;;;;;3.08;2.72;;;11.40;99.90;;;;;;6061681;23;20288;-72
2022/04/03 09:30:32;;;;;;;2.95;2.80;;;11.20;99.90;;;;;;6061925;23;20258;-74
2022/04/03 09:33:00;;;;;;;2.90;2.80;;;11.10;99.90;;;;;;6063932;23;20230;-71
2022/04/03 09:35:29;;;;;;;2.70;2.60;;;11.00;99.90;;;;;;6061695;23;20213;-73
2022/04/03 09:38:07;;;;;;;3.33;3.13;;;11.00;99.90;;;;;;6062107;23;20563;-75
2022/04/03 09:40:36;;;;;;;2.83;2.65;;;11.50;99.90;;;;;;6062108;23;20205;-76
2022/04/03 09:43:14;;;;;;;2.70;2.50;;;11.60;99.90;;;;;;6063050;23;20542;-76
2022/04/03 09:45:46;;;;;;;2.63;2.50;;;11.60;99.90;;;;;;6062668;23;20235;-75
2022/04/03 09:48:24;;;;;;;2.95;2.75;;;11.90;99.90;;;;;;6062041;23;20210;-75
2022/04/03 09:51:06;;;;;;;2.50;2.40;;;12.00;99.90;;;;;;6063020;23;20683;-74
2022/04/03 09:53:45;;;;;;;2.15;2.05;;;12.20;99.90;;;;;;6061846;23;20198;-75
2022/04/03 09:56:15;;;;;;;3.10;2.90;;;12.50;99.90;;;;;;6060844;23;20261;-77
2022/04/03 09:58:59;;;;;;;2.55;2.40;;;12.60;99.90;;;;;;6061123;23;20178;-75
2022/04/03 10:01:28;;;;;;;2.53;2.42;;;12.60;99.90;;;;;;6061417;23;20234;-76
2022/04/03 10:03:55;;;;;;;2.95;2.75;;;12.60;99.90;;;;;;6061849;23;20281;-76
2022/04/03 10:06:24;;;;;;;4.00;2.65;;;12.80;99.90;;;;;;6062019;23;20209;-77
2022/04/03 10:08:52;;;;;;;2.97;2.78;;;13.10;99.90;;;;;;6062070;23;20217;-77
2022/04/03 10:11:20;;;;;;;2.95;2.55;;;13.30;99.90;;;;;;6061878;23;20679;-77
2022/04/03 10:13:47;;;;;;;3.78;2.47;;;12.90;98.70;;;;;;6062383;23;20199;-78
2022/04/03 10:16:17;;;;;;;2.60;2.50;;;12.70;99.90;;;;;;6061992;23;20201;-78
2022/04/03 10:18:45;;;;;;;2.90;2.60;;;12.80;99.90;;;;;;6062590;23;20185;-78
2022/04/03 10:21:15;;;;;;;2.63;2.50;;;12.60;99.30;;;;;;6061694;23;20687;-73
2022/04/03 10:23:44;;;;;;;2.55;2.45;;;12.60;97.80;;;;;;6061740;23;20262;-80
2022/04/03 10:26:14;;;;;;;2.20;2.10;;;12.70;97.10;;;;;;6061612;23;20476;-75
2022/04/03 10:28:45;;;;;;;2.50;2.33;;;12.60;98.40;;;;;;6062503;23;20175;-78
2022/04/03 10:31:17;;;;;;;3.28;2.65;;;12.70;96.20;;;;;;6061826;23;20210;-76
2022/04/03 10:33:49;;;;;;;2.65;2.45;;;12.50;95.40;;;;;;6062323;23;20217;-79
2022/04/03 10:36:25;;;;;;;2.40;2.30;;;12.60;96.30;;;;;;6062901;23;20214;-75
2022/04/03 10:38:59;;;;;;;2.45;2.25;;;12.60;96.70;;;;;;6063084;23;20178;-79
2022/04/03 10:41:28;;;;;;;2.33;2.22;;;12.90;96.60;;;;;;6064651;23;20212;-75
2022/04/03 10:44:13;;;;;;;2.45;2.25;;;13.20;95.90;;;;;;6064212;23;20238;-78
2022/04/03 10:47:24;;;;;;;2.33;2.17;;;13.00;95.20;;;;;;6068871;23;20210;-75
2022/04/03 10:50:00;;;;;;;2.70;2.60;;;12.90;95.00;;;;;;6052606;23;20174;-75
2022/04/03 10:52:55;;;;;;;2.72;2.60;;;13.00;95.50;;;;;;6063949;23;20285;-75
2022/04/03 10:55:25;;;;;;;2.83;2.63;;;12.90;93.30;;;;;;6063579;23;20459;-76
2022/04/03 10:57:53;;;;;;;2.42;2.30;;;12.70;94.70;;;;;;6064625;23;20249;-78
2022/04/03 11:00:38;;;;;;;3.05;2.85;;;12.80;95.40;;;;;;6063231;23;20194;-77
2022/04/03 11:03:37;;;;;;;2.30;2.20;;;12.70;93.10;;;;;;6062414;23;20236;-78
2022/04/03 11:06:20;;;;;;;2.90;2.70;;;12.80;93.80;;;;;;6061644;23;20265;-76
2022/04/03 11:08:57;;;;;;;2.40;2.30;;;13.30;95.30;;;;;;6064057;23;20639;-77
2022/04/03 11:11:39;;;;;;;2.78;2.28;;;13.60;95.20;;;;;;6062090;23;20201;-73
2022/04/03 11:14:10;;;;;;;2.17;2.08;;;13.80;95.10;;;;;;6063518;23;20205;-74
2022/04/03 11:16:54;;;;;;;2.70;2.50;;;14.10;94.90;;;;;;6062756;23;20213;-74
2022/04/03 11:19:37;;;;;;;2.33;2.22;;;14.50;96.30;;;;;;6063213;23;20174;-74
2022/04/03 11:22:06;;;;;;;2.53;2.17;;;14.60;95.10;;;;;;6062327;23;20261;-75
2022/04/03 11:24:37;;;;;;;2.35;2.15;;;14.60;91.80;;;;;;6063074;23;20249;-74
2022/04/03 11:27:05;;;;;;;2.85;2.13;;;14.00;90.60;;;;;;6061857;23;20202;-74
2022/04/03 11:29:32;;;;;;;2.75;2.60;;;13.60;90.90;;;;;;6065140;23;20556;-74
2022/04/03 11:32:03;;;;;;;2.70;2.50;;;13.40;90.70;;;;;;6062057;23;20551;-74
2022/04/03 11:34:31;;;;;;;2.60;2.50;;;13.20;87.50;;;;;;6062728;23;20159;-74
2022/04/03 11:37:01;;;;;;;2.55;2.38;;;13.10;91.00;;;;;;6062786;23;20615;-74
2022/04/03 11:39:33;;;;;;;2.80;2.60;;;13.10;91.30;;;;;;6070483;23;20178;-74
2022/04/03 11:42:05;;;;;;;2.55;2.35;;;13.20;90.10;;;;;;6064909;23;20217;-74
2022/04/03 11:44:34;;;;;;;2.60;2.40;;;13.20;87.30;;;;;;6064265;23;20543;-75
2022/04/03 11:47:02;;;;;;;2.00;1.90;;;13.30;91.50;;;;;;6064916;23;20206;-74
2022/04/03 11:49:30;;;;;;;2.40;2.20;;;13.60;92.30;;;;;;6066168;23;20185;-75
2022/04/03 11:52:04;;;;;;;2.28;2.08;;;14.00;92.50;;;;;;6064355;23;20212;-75
2022/04/03 11:54:31;;;;;;;2.00;1.90;;;14.10;90.90;;;;;;6064071;23;20163;-74
2022/04/03 11:57:04;;;;;;;2.50;2.30;;;14.30;87.40;;;;;;6065497;23;20217;-75
2022/04/03 11:59:35;;;;;;;2.10;2.00;;;14.70;86.40;;;;;;6064119;23;20179;-74
2022/04/03 12:02:10;;;;;;;2.22;2.13;;;14.40;83.10;;;;;;6063693;23;20217;-75
2022/04/03 12:04:39;;;;;;;2.80;2.55;;;14.20;86.20;;;;;;6061981;23;20166;-74
2022/04/03 12:07:12;;;;;;;2.33;2.13;;;14.20;84.50;;;;;;6063225;23;20244;-74
2022/04/03 12:09:41;;;;;;;2.75;2.55;;;13.80;84.30;;;;;;6063453;23;20190;-73
2022/04/03 12:12:09;;;;;;;2.50;2.40;;;13.60;86.90;;;;;;6062625;23;20557;-72
2022/04/03 12:14:39;;;;;;;2.40;2.30;;;13.40;84.40;;;;;;6064468;23;20257;-72
2022/04/03 12:17:09;;;;;;;2.38;2.28;;;13.40;85.30;;;;;;6063364;23;20734;-72
2022/04/03 12:19:37;;;;;;;2.10;2.00;;;13.30;84.00;;;;;;6067887;23;20676;-74
2022/04/03 12:22:08;;;;;;;2.53;2.40;;;13.30;84.50;;;;;;6063714;23;20597;-72
2022/04/03 12:24:37;;;;;;;2.00;1.90;;;13.30;88.80;;;;;;6064961;23;20255;-72
2022/04/03 12:27:12;;;;;;;2.75;2.55;;;13.50;86.70;;;;;;6063456;23;20202;-72
2022/04/03 12:29:41;;;;;;;2.55;2.45;;;13.60;82.80;;;;;;6064938;23;20225;-72
2022/04/03 12:32:10;;;;;;;2.10;2.00;;;13.70;84.40;;;;;;6065103;23;20206;-73
2022/04/03 12:34:40;;;;;;;2.90;2.70;;;13.90;85.10;;;;;;6073132;23;20641;-72
2022/04/03 12:37:08;;;;;;;2.90;2.70;;;14.10;82.60;;;;;;6063767;23;20234;-75
2022/04/03 12:39:42;;;;;;;2.35;2.25;;;14.20;88.50;;;;;;6062990;23;20185;-74
2022/04/03 12:42:13;;;;;;;4.63;2.55;;;14.50;88.40;;;;;;6063108;23;20557;-76
2022/04/03 12:44:45;;;;;;;2.03;1.92;;;14.90;88.10;;;;;;6063523;23;20178;-75
2022/04/03 12:47:16;;;;;;;2.40;2.20;;;14.90;84.90;;;;;;6063634;23;20202;-74
2022/04/03 12:49:47;;;;;;;2.15;2.05;;;14.70;84.70;;;;;;6063218;23;20214;-74
2022/04/03 12:52:21;;;;;;;2.47;2.38;;;14.10;82.20;;;;;;6062899;23;20210;-76
2022/04/03 12:54:49;;;;;;;2.00;1.90;;;13.50;80.30;;;;;;6062416;23;20680;-75
2022/04/03 13:00:17;;;;;;;1.83;1.73;;;14.10;86.30;;;;;;6063396;23;20291;-77
2022/04/03 13:02:45;;;;;;;1.85;1.75;;;14.40;84.50;;;;;;6063887;23;20228;-74
2022/04/03 13:05:16;;;;;;;1.98;1.88;;;14.90;84.90;;;;;;6065961;23;20210;-77